KSFZ/SFZ METAR and TAF weather

Enter ICAO airport designator
Station Type Date Time Source
KSFZ METAR 2020/08/06 00:56 UTC NOAA

KSFZ 060056Z AUTO 00000KT 10SM BKN060 BKN070 25/19 A3003 RMK AO2 SLP112 T02500189


Station Type Date Time Source
KSFZ Decoded METAR 2020/08/06 00:56 UTC NOAA

Pawtucket, North Central State Airport, RI, United States (KSFZ) 41-55N 071-30W
Aug 05, 2020 - 08:56 PM EDT / 2020.08.06 0056 UTC
Wind: Calm:0
Visibility: 10 mile(s):0
Sky conditions: mostly cloudy
Temperature: 77.0 F (25.0 C)
Dew Point: 66.0 F (18.9 C)
Relative Humidity: 68%
Pressure (altimeter): 30.03 in. Hg (1016 hPa)
ob: KSFZ 060056Z AUTO 00000KT 10SM BKN060 BKN070 25/19 A3003 RMK AO2 SLP112 T02500189
cycle: 1

Station Type Date Time Source
KSFZ TAF UTC NOAA

Error!

Example: see airport list